Virtual Futura



 METAR AND TAF INFORMATION
METAR FOR LEBG
ADDS - METARS form results

(1347 UTC 22 February 2020)
Data provider http://aviationweather.gov/metar/data/
 
METAR text: LEBG 221330Z 05005KT 330V100 CAVOK 17/M01 Q1033
Conditions at: LEBG (BURGOS/VILLAFRIA, ES) observed 1330 UTC 22 February 2020
Temperature: 17.0°C (63°F)
Dewpoint: -1.0°C (30°F) [RH = 29%]
Pressure (altimeter): 30.50 inches Hg (1033.0 mb)
Winds: from the NE (50 degrees) at 6 MPH (5 knots; 2.6 m/s)
Visibility: 6 or more miles (10+ km)
Ceiling: ceiling and visibility are OK
Clouds: unknown
Weather: no significant weather observed at this time

METAR text: LEBG 221300Z 04004KT 340V150 CAVOK 16/01 Q1033
Conditions at: LEBG (BURGOS/VILLAFRIA, ES) observed 1300 UTC 22 February 2020
Temperature: 16.0°C (61°F)
Dewpoint: 1.0°C (34°F) [RH = 36%]
Pressure (altimeter): 30.50 inches Hg (1033.0 mb)
Winds: from the NE (40 degrees) at 5 MPH (4 knots; 2.1 m/s)
Visibility: 6 or more miles (10+ km)
Ceiling: ceiling and visibility are OK
Clouds: unknown
Weather: no significant weather observed at this time

Forecast for: LEBG (BURGOS/VILLAFRIA, ES)
Text: TAF LEBG 221100Z 2212/2221 VRB04KT CAVOK
Forecast period: 1200 to 2100 UTC 22 February 2020
Forecast type: FROM: standard forecast or significant change
Winds: variable direction winds at 5 MPH (4 knots; 2.1 m/s)
Visibility: 6 or more miles 10+ km)
Ceiling: unknown
Clouds: missing
Weather: NSW  (no significant weather)
Text: PROB30
Forecast period: 1500 to 2000 UTC 22 February 2020
Forecast type: TEMPORARY: The following changes expected for less than half the time period
Winds: from the NE (50 degrees) at 12 MPH (10 knots; 5.1 m/s)
Visibility: missing
Ceiling: unknown
Clouds: missing
Weather: no significant weather forecast for this period

 AIRPORT MAP

 RUNWAY INFORMATION
Runway 06 Runway length 4393 ft Runway width 98 ft
Runway elevation 2907 ft Runway displaced threshold 0 ft Runway heading 56
Runway 24 Runway length 4393 ft Runway width 98 ft
Runway elevation 2945 ft Runway displaced threshold 0 ft Runway heading 236

 AIRPORT FREQUENCIES
Type UNIC Name UNIC Frequency 122.4 MHZ

 AIRPORT NEAR NAVIGATION AIDS
Type NDB Name Burgos Frequency 357 KHZ
Type VOR-DME Name Burgos Frequency 111400 KHZ

Poltica de Cookies

Esta web utiliza cookies para obtener datos estadsticos de la navegacin de sus usuarios. Si continas navegando consideramos que aceptas su uso. Ms informacin X Cerrar